createdAt,value
2018-08-25T00:00:58.607Z,4.00
2018-08-25T00:01:58.630Z,4.00
2018-08-25T00:02:58.650Z,4.00
2018-08-25T00:03:58.676Z,4.00
2018-08-25T00:04:58.694Z,4.00
2018-08-25T00:05:58.716Z,4.00
2018-08-25T00:06:58.737Z,4.00
2018-08-25T00:07:58.760Z,4.00
2018-08-25T00:08:58.781Z,4.00
2018-08-25T00:09:58.804Z,4.00
2018-08-25T00:10:58.825Z,4.00
2018-08-25T00:11:58.849Z,4.00
2018-08-25T00:12:58.867Z,8.00
2018-08-25T00:13:58.891Z,4.00
2018-08-25T00:14:58.910Z,4.00
2018-08-25T00:15:58.932Z,4.00
2018-08-25T00:16:58.957Z,4.00
2018-08-25T00:17:58.977Z,4.00
2018-08-25T00:18:58.996Z,4.00
2018-08-25T00:19:59.018Z,4.00
2018-08-25T00:20:59.043Z,4.00
2018-08-25T00:21:59.063Z,4.00
2018-08-25T00:22:59.085Z,4.00
2018-08-25T00:23:59.105Z,4.00
2018-08-25T00:24:59.127Z,4.00
2018-08-25T00:25:59.147Z,4.00
2018-08-25T00:26:59.173Z,8.00
2018-08-25T00:27:59.193Z,4.00
2018-08-25T00:28:59.214Z,8.00
2018-08-25T00:29:59.236Z,4.00
2018-08-25T00:30:59.256Z,4.00
2018-08-25T00:31:59.279Z,4.00
2018-08-25T00:32:59.299Z,4.00
2018-08-25T00:33:59.320Z,4.00
2018-08-25T00:34:59.345Z,4.00
2018-08-25T00:35:59.364Z,4.00
2018-08-25T00:36:59.387Z,4.00
2018-08-25T00:37:59.408Z,4.00
2018-08-25T00:38:59.433Z,8.00
2018-08-25T00:39:59.455Z,4.00
2018-08-25T00:40:59.473Z,4.00
2018-08-25T00:41:59.494Z,4.00
2018-08-25T00:42:59.514Z,4.00
2018-08-25T00:43:59.536Z,4.00
2018-08-25T00:44:59.560Z,4.00
2018-08-25T00:45:59.581Z,4.00
2018-08-25T00:46:59.602Z,4.00
2018-08-25T00:47:59.624Z,4.00
2018-08-25T00:48:59.646Z,4.00
2018-08-25T00:49:59.667Z,4.00
2018-08-25T00:50:59.687Z,4.00
2018-08-25T00:51:59.707Z,4.00
2018-08-25T00:52:59.732Z,4.00
2018-08-25T00:53:59.750Z,4.00
2018-08-25T00:54:59.774Z,4.00
2018-08-25T00:55:59.795Z,4.00
2018-08-25T00:56:59.817Z,4.00
2018-08-25T00:57:59.838Z,4.00
2018-08-25T00:58:59.857Z,4.00
2018-08-25T00:59:59.877Z,4.00
2018-08-25T01:00:59.902Z,4.00
2018-08-25T01:01:59.923Z,4.00
2018-08-25T01:02:59.944Z,4.00
2018-08-25T01:03:59.966Z,4.00
2018-08-25T01:04:59.988Z,4.00
2018-08-25T01:06:00.008Z,4.00
2018-08-25T01:07:00.028Z,8.00
2018-08-25T01:08:00.053Z,4.00
2018-08-25T01:09:00.071Z,4.00
2018-08-25T01:10:00.090Z,4.00
2018-08-25T01:11:00.112Z,4.00
2018-08-25T01:12:00.135Z,4.00
2018-08-25T01:13:00.157Z,4.00
2018-08-25T01:14:00.175Z,8.00
2018-08-25T01:15:00.197Z,4.00
2018-08-25T01:16:00.270Z,4.00
2018-08-25T01:17:00.243Z,4.00
2018-08-25T01:18:00.263Z,4.00
2018-08-25T01:19:00.285Z,8.00
2018-08-25T01:20:00.304Z,4.00
2018-08-25T01:21:00.325Z,8.00
2018-08-25T01:22:00.345Z,8.00
2018-08-25T01:23:00.367Z,4.00
2018-08-25T01:24:00.390Z,4.00
2018-08-25T01:25:00.413Z,4.00
2018-08-25T01:26:00.434Z,4.00
2018-08-25T01:27:00.452Z,4.00
2018-08-25T01:28:00.475Z,4.00
2018-08-25T01:29:00.495Z,4.00
2018-08-25T01:30:00.515Z,4.00
2018-08-25T01:31:00.540Z,4.00
2018-08-25T01:32:00.561Z,4.00
2018-08-25T01:33:00.584Z,4.00
2018-08-25T01:34:00.599Z,4.00
2018-08-25T01:35:00.624Z,4.00
2018-08-25T01:36:00.645Z,4.00
2018-08-25T01:37:00.672Z,4.00
2018-08-25T01:38:00.688Z,4.00
2018-08-25T01:39:00.707Z,4.00
2018-08-25T01:40:00.731Z,4.00
2018-08-25T01:41:00.753Z,4.00
2018-08-25T01:42:00.772Z,4.00
2018-08-25T01:43:00.793Z,4.00
2018-08-25T01:44:00.816Z,8.00
2018-08-25T01:45:00.835Z,4.00
2018-08-25T01:46:00.858Z,4.00
2018-08-25T01:47:00.876Z,4.00
2018-08-25T01:48:00.897Z,4.00
2018-08-25T01:49:00.918Z,4.00
2018-08-25T01:50:00.941Z,4.00
2018-08-25T01:51:00.964Z,4.00
2018-08-25T01:52:00.982Z,4.00
2018-08-25T01:53:01.006Z,4.00
2018-08-25T01:54:01.025Z,4.00
2018-08-25T01:55:01.047Z,4.00
2018-08-25T01:56:01.068Z,4.00
2018-08-25T01:57:01.090Z,4.00
2018-08-25T01:58:01.108Z,8.00
2018-08-25T01:59:01.129Z,4.00
2018-08-25T02:00:01.151Z,4.00
2018-08-25T02:01:01.175Z,4.00
2018-08-25T02:02:01.194Z,4.00
2018-08-25T02:03:01.217Z,4.00
2018-08-25T02:04:01.239Z,8.00
2018-08-25T02:05:01.258Z,4.00
2018-08-25T02:06:01.279Z,4.00
2018-08-25T02:07:01.298Z,4.00
2018-08-25T02:08:01.324Z,4.00
2018-08-25T02:09:01.343Z,4.00
2018-08-25T02:10:01.364Z,4.00
2018-08-25T02:11:01.386Z,4.00
2018-08-25T02:12:01.404Z,4.00
2018-08-25T02:13:01.451Z,8.00
2018-08-25T02:14:01.447Z,4.00
2018-08-25T02:15:01.467Z,4.00
2018-08-25T02:16:01.488Z,4.00
2018-08-25T02:17:01.512Z,4.00
2018-08-25T02:18:01.533Z,4.00
2018-08-25T02:19:01.552Z,4.00
2018-08-25T02:20:01.577Z,4.00
2018-08-25T02:21:01.598Z,8.00
2018-08-25T02:22:01.618Z,8.00
2018-08-25T02:23:01.636Z,4.00
2018-08-25T02:24:01.661Z,4.00
2018-08-25T02:25:01.683Z,4.00
2018-08-25T02:26:01.703Z,4.00
2018-08-25T02:27:01.722Z,4.00
2018-08-25T02:28:01.769Z,4.00
2018-08-25T02:29:01.764Z,8.00
2018-08-25T02:30:01.788Z,4.00
2018-08-25T02:31:01.806Z,4.00
2018-08-25T02:32:01.827Z,4.00
2018-08-25T02:33:01.851Z,4.00
2018-08-25T02:34:01.870Z,4.00
2018-08-25T02:35:01.892Z,4.00
2018-08-25T02:36:01.912Z,4.00
2018-08-25T02:37:01.946Z,8.00
2018-08-25T02:38:01.955Z,8.00
2018-08-25T02:39:01.981Z,4.00
2018-08-25T02:40:01.999Z,4.00
2018-08-25T02:41:02.021Z,4.00
2018-08-25T02:42:02.040Z,4.00
2018-08-25T02:43:02.061Z,4.00
2018-08-25T02:44:02.080Z,4.00
2018-08-25T02:45:02.108Z,4.00
2018-08-25T02:46:02.123Z,4.00
2018-08-25T02:47:02.148Z,4.00
2018-08-25T02:48:02.169Z,4.00
2018-08-25T02:49:02.191Z,4.00
2018-08-25T02:50:02.212Z,4.00
2018-08-25T02:51:02.231Z,4.00
2018-08-25T02:52:02.255Z,4.00
2018-08-25T02:53:02.274Z,4.00
2018-08-25T02:54:02.294Z,4.00
2018-08-25T02:55:02.314Z,4.00
2018-08-25T02:56:02.338Z,4.00
2018-08-25T02:57:02.359Z,4.00
2018-08-25T02:58:02.377Z,4.00
2018-08-25T02:59:02.400Z,4.00
2018-08-25T03:00:02.426Z,4.00
2018-08-25T03:01:02.441Z,4.00
2018-08-25T03:02:02.461Z,4.00
2018-08-25T03:03:02.484Z,4.00
2018-08-25T03:04:02.506Z,4.00
2018-08-25T03:05:02.525Z,4.00
2018-08-25T03:06:02.549Z,4.00
2018-08-25T03:07:02.567Z,4.00
2018-08-25T03:08:02.590Z,4.00
2018-08-25T03:09:02.611Z,4.00
2018-08-25T03:10:02.634Z,4.00
2018-08-25T03:11:02.651Z,4.00
2018-08-25T03:12:02.673Z,4.00
2018-08-25T03:13:02.695Z,4.00
2018-08-25T03:14:02.717Z,4.00
2018-08-25T03:15:02.736Z,4.00
2018-08-25T03:16:02.759Z,4.00
2018-08-25T03:17:02.778Z,4.00
2018-08-25T03:18:02.801Z,4.00
2018-08-25T03:19:02.822Z,4.00
2018-08-25T03:20:02.843Z,4.00
2018-08-25T03:21:02.863Z,4.00
2018-08-25T03:22:02.882Z,4.00
2018-08-25T03:23:02.904Z,4.00
2018-08-25T03:24:02.929Z,4.00
2018-08-25T03:25:02.948Z,4.00
2018-08-25T03:26:02.969Z,4.00
2018-08-25T03:27:02.990Z,4.00
2018-08-25T03:28:03.011Z,4.00
2018-08-25T03:29:03.034Z,4.00
2018-08-25T03:30:03.051Z,4.00
2018-08-25T03:31:03.089Z,4.00
2018-08-25T03:32:03.101Z,4.00
2018-08-25T03:33:03.119Z,4.00
2018-08-25T03:34:03.136Z,4.00
2018-08-25T03:35:03.159Z,4.00
2018-08-25T03:36:03.179Z,4.00
2018-08-25T03:37:03.200Z,4.00
2018-08-25T03:38:03.222Z,4.00
2018-08-25T03:39:03.245Z,4.00
2018-08-25T03:40:03.271Z,4.00
2018-08-25T03:41:03.285Z,4.00
2018-08-25T03:42:03.304Z,4.00
2018-08-25T03:43:03.336Z,4.00
2018-08-25T03:44:03.348Z,4.00
2018-08-25T03:45:03.368Z,4.00
2018-08-25T03:46:03.391Z,4.00
2018-08-25T03:47:03.410Z,4.00
2018-08-25T03:48:03.433Z,4.00
2018-08-25T03:49:03.452Z,4.00
2018-08-25T03:50:03.471Z,4.00
2018-08-25T03:51:03.497Z,4.00
2018-08-25T03:52:03.524Z,4.00
2018-08-25T03:53:03.536Z,4.00
2018-08-25T03:54:03.555Z,4.00
2018-08-25T03:55:03.578Z,4.00
2018-08-25T03:56:03.599Z,4.00
2018-08-25T03:57:03.618Z,4.00
2018-08-25T03:58:03.636Z,4.00
2018-08-25T03:59:03.669Z,4.00
2018-08-25T04:00:03.679Z,4.00
2018-08-25T04:01:03.698Z,8.00
2018-08-25T04:02:03.721Z,8.00
2018-08-25T04:03:03.738Z,8.00
2018-08-25T04:04:03.758Z,4.00
2018-08-25T04:05:03.780Z,4.00
2018-08-25T04:06:03.802Z,8.00
2018-08-25T04:07:03.820Z,8.00
2018-08-25T04:08:06.874Z,8.00
2018-08-25T04:09:03.863Z,8.00
2018-08-25T04:10:03.883Z,8.00
2018-08-25T04:11:03.968Z,8.00
2018-08-25T04:12:03.923Z,8.00
2018-08-25T04:13:03.945Z,8.00
2018-08-25T04:14:03.964Z,8.00
2018-08-25T04:15:03.992Z,8.00
2018-08-25T04:16:04.004Z,12.00
2018-08-25T04:17:04.023Z,12.00
2018-08-25T04:18:04.042Z,12.00
2018-08-25T04:19:04.064Z,12.00
2018-08-25T04:20:04.083Z,16.00
2018-08-25T04:21:04.106Z,16.00
2018-08-25T04:22:04.155Z,16.00
2018-08-25T04:23:04.145Z,20.00
2018-08-25T04:24:04.228Z,16.00
2018-08-25T04:25:04.186Z,20.00
2018-08-25T04:26:04.202Z,20.00
2018-08-25T04:27:04.224Z,24.00
2018-08-25T04:28:04.244Z,32.00
2018-08-25T04:29:04.264Z,36.00
2018-08-25T04:30:04.281Z,40.00
2018-08-25T04:31:04.310Z,48.00
2018-08-25T04:32:04.325Z,60.00
2018-08-25T04:33:04.344Z,76.00
2018-08-25T04:34:04.361Z,88.00
2018-08-25T04:35:04.387Z,96.00
2018-08-25T04:36:04.401Z,100.00
2018-08-25T04:37:04.424Z,100.00
2018-08-25T04:38:04.444Z,96.00
2018-08-25T04:39:04.460Z,92.00
2018-08-25T04:40:04.483Z,80.00
2018-08-25T04:41:04.555Z,68.00
2018-08-25T04:42:04.522Z,72.00
2018-08-25T04:43:04.542Z,80.00
2018-08-25T04:44:04.563Z,92.00
2018-08-25T04:45:04.582Z,100.00
2018-08-25T04:46:04.601Z,108.00
2018-08-25T04:47:04.622Z,112.00
2018-08-25T04:48:04.640Z,128.00
2018-08-25T04:49:04.660Z,144.00
2018-08-25T04:50:04.680Z,168.00
2018-08-25T04:51:04.701Z,192.00
2018-08-25T04:52:04.719Z,204.00
2018-08-25T04:53:04.741Z,204.00
2018-08-25T04:54:04.761Z,184.00
2018-08-25T04:55:04.782Z,180.00
2018-08-25T04:56:04.799Z,200.00
2018-08-25T04:57:04.822Z,228.00
2018-08-25T04:58:04.838Z,268.00
2018-08-25T04:59:04.860Z,300.00
2018-08-25T05:00:04.879Z,324.00
2018-08-25T05:01:04.904Z,340.00
2018-08-25T05:02:05.015Z,328.00
2018-08-25T05:03:04.939Z,240.00
2018-08-25T05:04:04.962Z,256.00
2018-08-25T05:05:04.980Z,316.00
2018-08-25T05:06:05.000Z,348.00
2018-08-25T05:07:05.018Z,292.00
2018-08-25T05:08:05.042Z,300.00
2018-08-25T05:09:05.060Z,296.00
2018-08-25T05:10:05.080Z,332.00
2018-08-25T05:11:05.099Z,264.00
2018-08-25T05:12:05.122Z,244.00
2018-08-25T05:13:05.140Z,260.00
2018-08-25T05:14:05.161Z,188.00
2018-08-25T05:15:05.179Z,136.00
2018-08-25T05:16:05.203Z,196.00
2018-08-25T05:17:05.221Z,228.00
2018-08-25T05:18:05.240Z,272.00
2018-08-25T05:19:05.260Z,324.00
2018-08-25T05:20:05.284Z,368.00
2018-08-25T05:21:05.299Z,448.00
2018-08-25T05:22:05.422Z,372.00
2018-08-25T05:23:05.342Z,360.00
2018-08-25T05:24:05.361Z,360.00
2018-08-25T05:25:05.385Z,308.00
2018-08-25T05:26:05.401Z,272.00
2018-08-25T05:27:05.421Z,364.00
2018-08-25T05:28:05.440Z,476.00
2018-08-25T05:29:05.463Z,464.00
2018-08-25T05:30:05.482Z,568.00
2018-08-25T05:31:05.500Z,460.00
2018-08-25T05:32:05.523Z,360.00
2018-08-25T05:33:05.544Z,376.00
2018-08-25T05:34:05.561Z,480.00
2018-08-25T05:35:05.580Z,412.00
2018-08-25T05:36:05.601Z,308.00
2018-08-25T05:37:05.623Z,312.00
2018-08-25T05:38:05.642Z,504.00
2018-08-25T05:39:05.660Z,388.00
2018-08-25T05:40:05.684Z,208.00
2018-08-25T05:41:05.702Z,248.00
2018-08-25T05:42:05.722Z,268.00
2018-08-25T05:43:05.741Z,304.00
2018-08-25T05:44:05.881Z,464.00
2018-08-25T05:45:05.785Z,512.00
2018-08-25T05:46:05.809Z,348.00
2018-08-25T05:47:05.835Z,584.00
2018-08-25T05:48:05.842Z,652.00
2018-08-25T05:49:06.116Z,348.00
2018-08-25T05:50:05.881Z,492.00
2018-08-25T05:51:05.905Z,536.00
2018-08-25T05:52:05.922Z,776.00
2018-08-25T05:53:05.942Z,836.00
2018-08-25T05:54:05.962Z,636.00
2018-08-25T05:55:05.981Z,780.00
2018-08-25T05:56:06.001Z,828.00
2018-08-25T05:57:06.025Z,932.00
2018-08-25T05:58:06.040Z,928.00
2018-08-25T05:59:06.063Z,976.00
2018-08-25T06:00:06.080Z,948.00
2018-08-25T06:01:06.102Z,928.00
2018-08-25T06:02:06.120Z,1028.00
2018-08-25T06:03:06.141Z,1244.00
2018-08-25T06:04:06.161Z,1356.00
2018-08-25T06:05:06.180Z,1128.00
2018-08-25T06:06:06.202Z,768.00
2018-08-25T06:07:06.221Z,668.00
2018-08-25T06:08:06.243Z,872.00
2018-08-25T06:09:06.259Z,812.00
2018-08-25T06:10:06.279Z,864.00
2018-08-25T06:11:06.302Z,1096.00
2018-08-25T06:12:06.322Z,1068.00
2018-08-25T06:13:06.339Z,800.00
2018-08-25T06:14:06.361Z,808.00
2018-08-25T06:15:06.378Z,852.00
2018-08-25T06:16:06.400Z,928.00
2018-08-25T06:17:06.420Z,1180.00
2018-08-25T06:18:06.443Z,1728.00
2018-08-25T06:19:06.477Z,1744.00
2018-08-25T06:20:06.482Z,1452.00
2018-08-25T06:21:06.497Z,1632.00
2018-08-25T06:22:06.522Z,2308.00
2018-08-25T06:23:06.541Z,2600.00
2018-08-25T06:24:06.558Z,2636.00
2018-08-25T06:25:06.579Z,2656.00
2018-08-25T06:26:06.598Z,2212.00
2018-08-25T06:27:06.622Z,2148.00
2018-08-25T06:28:06.636Z,2424.00
2018-08-25T06:29:06.656Z,3064.00
2018-08-25T06:30:06.730Z,2436.00
2018-08-25T06:31:06.696Z,1972.00
2018-08-25T06:32:06.715Z,1944.00
2018-08-25T06:33:06.736Z,2020.00
2018-08-25T06:34:06.755Z,2512.00
2018-08-25T06:35:06.775Z,3472.00
2018-08-25T06:36:06.842Z,3996.00
2018-08-25T06:37:06.815Z,2876.00
2018-08-25T06:38:06.837Z,3348.00
2018-08-25T06:39:06.855Z,3928.00
2018-08-25T06:40:06.876Z,4312.00
2018-08-25T06:41:06.898Z,4160.00
2018-08-25T06:42:06.920Z,3520.00
2018-08-25T06:43:06.935Z,2840.00
2018-08-25T06:44:06.959Z,3620.00
2018-08-25T06:45:06.980Z,3896.00
2018-08-25T06:46:06.996Z,3840.00
2018-08-25T06:47:07.018Z,3180.00
2018-08-25T06:48:07.039Z,3116.00
2018-08-25T06:49:07.061Z,3824.00
2018-08-25T06:50:07.079Z,3200.00
2018-08-25T06:51:07.101Z,3524.00
2018-08-25T06:52:07.121Z,2972.00
2018-08-25T06:53:07.145Z,2692.00
2018-08-25T06:54:07.158Z,2408.00
2018-08-25T06:55:07.179Z,2192.00
2018-08-25T06:56:07.204Z,2304.00
2018-08-25T06:57:07.271Z,3052.00
2018-08-25T06:58:07.244Z,2872.00
2018-08-25T06:59:07.263Z,2376.00
2018-08-25T07:00:07.285Z,1916.00
2018-08-25T07:01:07.302Z,1784.00
2018-08-25T07:02:07.323Z,2292.00
2018-08-25T07:03:07.345Z,2660.00
2018-08-25T07:04:07.368Z,2612.00
2018-08-25T07:05:07.383Z,3432.00
2018-08-25T07:06:07.507Z,3024.00
2018-08-25T07:07:07.424Z,3116.00
2018-08-25T07:08:07.444Z,3420.00
2018-08-25T07:09:07.469Z,3056.00
2018-08-25T07:10:07.488Z,2904.00
2018-08-25T07:11:07.506Z,2792.00
2018-08-25T07:12:07.528Z,2920.00
2018-08-25T07:13:07.548Z,2804.00
2018-08-25T07:14:07.567Z,3240.00
2018-08-25T07:15:07.591Z,3340.00
2018-08-25T07:16:07.614Z,4860.00
2018-08-25T07:17:07.629Z,3992.00
2018-08-25T07:18:07.652Z,3944.00
2018-08-25T07:19:07.768Z,4028.00
2018-08-25T07:20:07.694Z,5372.00
2018-08-25T07:21:07.712Z,4956.00
2018-08-25T07:22:07.732Z,3736.00
2018-08-25T07:23:07.753Z,3460.00
2018-08-25T07:24:07.777Z,3252.00
2018-08-25T07:25:07.799Z,3104.00
2018-08-25T07:26:07.841Z,2916.00
2018-08-25T07:27:07.839Z,2672.00
2018-08-25T07:28:07.860Z,2888.00
2018-08-25T07:29:07.881Z,4092.00
2018-08-25T07:30:07.903Z,3472.00
2018-08-25T07:31:07.922Z,3236.00
2018-08-25T07:32:07.989Z,3232.00
2018-08-25T07:33:07.965Z,4160.00
2018-08-25T07:34:07.985Z,4772.00
2018-08-25T07:35:08.006Z,3864.00
2018-08-25T07:36:08.023Z,2664.00
2018-08-25T07:37:08.049Z,1896.00
2018-08-25T07:38:08.090Z,1724.00
2018-08-25T07:39:08.086Z,2508.00
2018-08-25T07:40:08.109Z,5084.00
2018-08-25T07:41:08.128Z,4584.00
2018-08-25T07:42:08.150Z,5204.00
2018-08-25T07:43:08.172Z,3648.00
2018-08-25T07:44:08.193Z,3172.00
2018-08-25T07:45:08.273Z,3312.00
2018-08-25T07:46:08.232Z,3272.00
2018-08-25T07:47:08.255Z,3368.00
2018-08-25T07:48:08.274Z,3588.00
2018-08-25T07:49:08.304Z,3004.00
2018-08-25T07:50:08.316Z,2840.00
2018-08-25T07:51:08.338Z,3068.00
2018-08-25T07:52:08.360Z,3072.00
2018-08-25T07:53:08.383Z,2576.00
2018-08-25T07:54:08.428Z,1800.00
2018-08-25T07:55:08.421Z,1188.00
2018-08-25T07:56:08.441Z,1208.00
2018-08-25T07:57:08.463Z,1036.00
2018-08-25T07:58:10.339Z,908.00
2018-08-25T07:59:08.546Z,1232.00
2018-08-25T08:00:08.525Z,1376.00
2018-08-25T08:01:08.549Z,1392.00
2018-08-25T08:02:08.572Z,1884.00
2018-08-25T08:03:08.594Z,2044.00
2018-08-25T08:04:08.608Z,1760.00
2018-08-25T08:05:08.632Z,1336.00
2018-08-25T08:06:08.651Z,1228.00
2018-08-25T08:07:08.675Z,1644.00
2018-08-25T08:08:08.694Z,1860.00
2018-08-25T08:09:08.718Z,1820.00
2018-08-25T08:10:08.735Z,1656.00
2018-08-25T08:11:08.755Z,1388.00
2018-08-25T08:12:08.806Z,1360.00
2018-08-25T08:13:08.804Z,1380.00
2018-08-25T08:14:08.816Z,1344.00
2018-08-25T08:15:08.838Z,1316.00
2018-08-25T08:16:08.857Z,1352.00
2018-08-25T08:17:08.879Z,1252.00
2018-08-25T08:18:08.899Z,1228.00
2018-08-25T08:19:08.920Z,1364.00
2018-08-25T08:20:08.940Z,1564.00
2018-08-25T08:21:08.963Z,1848.00
2018-08-25T08:22:08.980Z,2320.00
2018-08-25T08:23:09.000Z,2640.00
2018-08-25T08:24:09.020Z,2692.00
2018-08-25T08:25:09.196Z,2608.00
2018-08-25T08:26:09.058Z,2760.00
2018-08-25T08:27:09.078Z,3220.00
2018-08-25T08:28:09.100Z,3556.00
2018-08-25T08:29:09.121Z,3740.00
2018-08-25T08:30:09.138Z,3880.00
2018-08-25T08:31:09.159Z,3836.00
2018-08-25T08:32:09.181Z,3884.00
2018-08-25T08:33:09.308Z,4128.00
2018-08-25T08:34:09.219Z,4168.00
2018-08-25T08:35:09.239Z,4148.00
2018-08-25T08:36:09.257Z,4376.00
2018-08-25T08:37:09.278Z,4688.00
2018-08-25T08:38:09.298Z,4928.00
2018-08-25T08:39:09.319Z,5072.00
2018-08-25T08:40:09.341Z,5248.00
2018-08-25T08:41:09.363Z,5616.00
2018-08-25T08:42:09.436Z,6064.00
2018-08-25T08:43:09.400Z,5884.00
2018-08-25T08:44:09.418Z,5476.00
2018-08-25T08:45:09.440Z,5036.00
2018-08-25T08:46:09.461Z,4584.00
2018-08-25T08:47:09.481Z,4044.00
2018-08-25T08:48:09.503Z,3556.00
2018-08-25T08:49:09.527Z,3144.00
2018-08-25T08:50:09.549Z,2944.00
2018-08-25T08:51:09.564Z,2872.00
2018-08-25T08:52:09.581Z,2960.00
2018-08-25T08:53:09.604Z,3068.00
2018-08-25T08:54:09.627Z,3056.00
2018-08-25T08:55:09.650Z,2940.00
2018-08-25T08:56:09.664Z,3116.00
2018-08-25T08:57:09.684Z,3576.00
2018-08-25T08:58:09.764Z,4004.00
2018-08-25T08:59:09.729Z,4360.00
2018-08-25T09:00:09.747Z,4872.00
2018-08-25T09:01:09.766Z,5672.00
2018-08-25T09:02:09.788Z,7160.00
2018-08-25T09:03:09.808Z,7684.00
2018-08-25T09:04:09.830Z,7912.00
2018-08-25T09:05:09.850Z,7732.00
2018-08-25T09:06:09.873Z,6452.00
2018-08-25T09:07:09.889Z,5880.00
2018-08-25T09:08:09.910Z,5304.00
2018-08-25T09:09:09.933Z,4732.00
2018-08-25T09:10:09.951Z,4868.00
2018-08-25T09:11:09.972Z,5016.00
2018-08-25T09:12:09.997Z,5188.00
2018-08-25T09:13:10.017Z,5528.00
2018-08-25T09:14:10.034Z,5192.00
2018-08-25T09:15:10.056Z,4480.00
2018-08-25T09:16:10.078Z,4220.00
2018-08-25T09:17:10.100Z,4428.00
2018-08-25T09:18:10.175Z,3812.00
2018-08-25T09:19:10.140Z,3052.00
2018-08-25T09:20:10.159Z,3200.00
2018-08-25T09:21:10.181Z,3688.00
2018-08-25T09:22:10.200Z,4952.00
2018-08-25T09:23:10.221Z,5000.00
2018-08-25T09:24:10.243Z,4564.00
2018-08-25T09:25:10.262Z,3652.00
2018-08-25T09:26:10.285Z,2792.00
2018-08-25T09:27:10.302Z,2396.00
2018-08-25T09:28:10.326Z,2468.00
2018-08-25T09:29:10.347Z,2408.00
2018-08-25T09:30:10.368Z,2880.00
2018-08-25T09:31:10.391Z,3564.00
2018-08-25T09:32:10.409Z,4392.00
2018-08-25T09:33:10.474Z,4892.00
2018-08-25T09:34:10.446Z,4988.00
2018-08-25T09:35:10.467Z,4912.00
2018-08-25T09:36:10.604Z,3276.00
2018-08-25T09:37:10.509Z,4656.00
2018-08-25T09:38:10.533Z,4304.00
2018-08-25T09:39:10.552Z,3440.00
2018-08-25T09:40:10.574Z,5328.00
2018-08-25T09:41:10.592Z,6280.00
2018-08-25T09:42:10.614Z,7288.00
2018-08-25T09:43:10.638Z,7928.00
2018-08-25T09:44:10.654Z,6756.00
2018-08-25T09:45:10.675Z,6916.00
2018-08-25T09:46:10.695Z,6980.00
2018-08-25T09:47:10.853Z,6696.00
2018-08-25T09:48:10.739Z,7476.00
2018-08-25T09:49:10.758Z,8004.00
2018-08-25T09:50:10.779Z,7156.00
2018-08-25T09:51:10.800Z,4920.00
2018-08-25T09:52:10.821Z,4560.00
2018-08-25T09:53:11.293Z,5856.00
2018-08-25T09:54:10.860Z,3656.00
2018-08-25T09:55:10.882Z,3960.00
2018-08-25T09:56:10.904Z,4900.00
2018-08-25T09:57:10.924Z,4988.00
2018-08-25T09:58:10.946Z,6060.00
2018-08-25T09:59:10.969Z,4344.00
2018-08-25T10:00:10.989Z,2596.00
2018-08-25T10:01:11.014Z,2596.00
2018-08-25T10:02:11.031Z,5416.00
2018-08-25T10:03:11.052Z,5620.00
2018-08-25T10:04:11.074Z,2864.00
2018-08-25T10:05:11.124Z,4968.00
2018-08-25T10:06:11.116Z,7184.00
2018-08-25T10:07:11.138Z,6872.00
2018-08-25T10:08:11.158Z,6576.00
2018-08-25T10:09:11.179Z,3756.00
2018-08-25T10:10:11.199Z,3656.00
2018-08-25T10:11:11.219Z,6340.00
2018-08-25T10:12:11.240Z,4072.00
2018-08-25T10:13:11.263Z,5376.00
2018-08-25T10:14:11.282Z,3488.00
2018-08-25T10:15:11.303Z,3464.00
2018-08-25T10:16:11.327Z,3540.00
2018-08-25T10:17:11.347Z,4044.00
2018-08-25T10:18:11.369Z,4488.00
2018-08-25T10:19:11.395Z,4372.00
2018-08-25T10:20:11.411Z,4052.00
2018-08-25T10:21:11.433Z,5716.00
2018-08-25T10:22:11.451Z,3420.00
2018-08-25T10:23:11.501Z,3336.00
2018-08-25T10:24:11.503Z,3656.00
2018-08-25T10:25:11.520Z,4152.00
2018-08-25T10:26:11.540Z,7676.00
2018-08-25T10:27:11.562Z,5604.00
2018-08-25T10:28:11.582Z,6304.00
2018-08-25T10:29:11.602Z,9540.00
2018-08-25T10:30:11.624Z,6192.00
2018-08-25T10:31:11.644Z,5600.00
2018-08-25T10:32:11.666Z,6872.00
2018-08-25T10:33:11.689Z,4760.00
2018-08-25T10:34:11.708Z,7024.00
2018-08-25T10:35:11.731Z,5480.00
2018-08-25T10:36:11.752Z,4692.00
2018-08-25T10:37:11.776Z,4860.00
2018-08-25T10:38:11.796Z,4636.00
2018-08-25T10:39:11.816Z,4788.00
2018-08-25T10:40:11.839Z,7376.00
2018-08-25T10:41:11.859Z,6444.00
2018-08-25T10:42:11.916Z,3720.00
2018-08-25T10:43:11.908Z,3664.00
2018-08-25T10:44:11.926Z,3660.00
2018-08-25T10:45:11.949Z,3288.00
2018-08-25T10:46:11.972Z,3920.00
2018-08-25T10:47:11.992Z,3152.00
2018-08-25T10:48:12.047Z,4044.00
2018-08-25T10:49:12.065Z,4572.00
2018-08-25T10:50:12.054Z,4836.00
2018-08-25T10:51:12.081Z,4760.00
2018-08-25T10:52:12.100Z,4452.00
2018-08-25T10:53:12.121Z,4368.00
2018-08-25T10:54:12.140Z,4708.00
2018-08-25T10:55:12.164Z,4904.00
2018-08-25T10:56:12.184Z,5164.00
2018-08-25T10:57:12.211Z,5652.00
2018-08-25T10:58:12.230Z,5972.00
2018-08-25T10:59:12.254Z,5036.00
2018-08-25T11:00:12.338Z,6692.00
2018-08-25T11:01:12.422Z,6968.00
2018-08-25T11:02:12.317Z,6716.00
2018-08-25T11:03:12.345Z,5196.00
2018-08-25T11:04:12.361Z,4312.00
2018-08-25T11:05:12.382Z,3896.00
2018-08-25T11:06:12.403Z,3756.00
2018-08-25T11:07:12.423Z,4116.00
2018-08-25T11:08:12.452Z,3948.00
2018-08-25T11:09:12.468Z,5860.00
2018-08-25T11:10:12.489Z,4956.00
2018-08-25T11:11:12.513Z,5220.00
2018-08-25T11:12:12.536Z,5044.00
2018-08-25T11:13:12.558Z,5652.00
2018-08-25T11:14:12.582Z,5516.00
2018-08-25T11:15:12.601Z,6844.00
2018-08-25T11:16:12.625Z,6184.00
2018-08-25T11:17:12.643Z,5816.00
2018-08-25T11:18:12.664Z,4052.00
2018-08-25T11:19:12.688Z,4140.00
2018-08-25T11:20:12.710Z,4584.00
2018-08-25T11:21:12.734Z,4628.00
2018-08-25T11:22:12.755Z,5588.00
2018-08-25T11:23:12.780Z,6680.00
2018-08-25T11:24:12.800Z,6364.00
2018-08-25T11:25:12.823Z,4432.00
2018-08-25T11:26:12.840Z,4472.00
2018-08-25T11:27:12.867Z,6572.00
2018-08-25T11:28:12.885Z,4520.00
2018-08-25T11:29:12.918Z,6640.00
2018-08-25T11:30:12.929Z,7232.00
2018-08-25T11:31:12.952Z,7352.00
2018-08-25T11:32:13.276Z,7348.00
2018-08-25T11:33:12.997Z,6552.00
2018-08-25T11:34:13.021Z,5700.00
2018-08-25T11:35:13.040Z,8212.00
2018-08-25T11:36:13.063Z,8144.00
2018-08-25T11:37:13.101Z,8768.00
2018-08-25T11:38:13.173Z,8400.00
2018-08-25T11:39:13.133Z,7536.00
2018-08-25T11:40:13.154Z,6708.00
2018-08-25T11:41:13.179Z,6912.00
2018-08-25T11:42:13.200Z,5296.00
2018-08-25T11:43:13.227Z,5512.00
2018-08-25T11:44:13.248Z,5752.00
2018-08-25T11:45:13.271Z,5216.00
2018-08-25T11:46:13.292Z,5024.00
2018-08-25T11:47:13.313Z,4828.00
2018-08-25T11:48:13.336Z,3480.00
2018-08-25T11:49:13.363Z,3616.00
2018-08-25T11:50:13.383Z,6192.00
2018-08-25T11:51:13.904Z,4980.00
2018-08-25T11:52:13.428Z,4940.00
2018-08-25T11:53:13.452Z,5300.00
2018-08-25T11:54:13.473Z,5384.00
2018-08-25T11:55:13.503Z,5480.00
2018-08-25T11:56:13.518Z,5088.00
2018-08-25T11:57:13.543Z,5460.00
2018-08-25T11:58:13.565Z,6076.00
2018-08-25T11:59:13.588Z,5540.00
2018-08-25T12:00:13.609Z,4500.00
2018-08-25T12:01:13.633Z,2724.00
2018-08-25T12:02:13.709Z,2872.00
2018-08-25T12:03:13.678Z,5068.00
2018-08-25T12:04:13.698Z,3384.00
2018-08-25T12:05:13.723Z,3808.00
2018-08-25T12:06:13.745Z,3968.00
2018-08-25T12:07:13.769Z,3832.00
2018-08-25T12:08:13.791Z,5124.00
2018-08-25T12:09:13.813Z,4700.00
2018-08-25T12:10:13.833Z,4496.00
2018-08-25T12:11:13.856Z,6484.00
2018-08-25T12:12:13.879Z,6748.00
2018-08-25T12:13:13.905Z,4888.00
2018-08-25T12:14:13.923Z,6700.00
2018-08-25T12:15:13.947Z,6144.00
2018-08-25T12:16:14.055Z,5028.00
2018-08-25T12:17:13.993Z,5028.00
2018-08-25T12:18:14.015Z,6372.00
2018-08-25T12:19:14.035Z,5900.00
2018-08-25T12:20:14.059Z,5716.00
2018-08-25T12:21:14.080Z,6904.00
2018-08-25T12:22:14.104Z,6512.00
2018-08-25T12:23:14.126Z,7748.00
2018-08-25T12:24:14.239Z,8780.00
2018-08-25T12:25:14.173Z,8324.00
2018-08-25T12:26:14.192Z,9064.00
2018-08-25T12:27:14.218Z,7644.00
2018-08-25T12:28:14.241Z,8048.00
2018-08-25T12:29:14.263Z,9048.00
2018-08-25T12:30:14.286Z,9760.00
2018-08-25T12:31:14.310Z,9616.00
2018-08-25T12:32:14.333Z,8100.00
2018-08-25T12:33:14.356Z,7532.00
2018-08-25T12:34:14.380Z,7176.00